Time;durP1;ratioP1;P1;durP2;ratioP2;P2;SDS_P1;SDS_P2;PMS_P1;PMS_P2;Temp;Humidity;BMP_temperature;BMP_pressure;BME280_temperature;BME280_humidity;BME280_pressure;Samples;Min_cycle;Max_cycle;Signal;HPM_P1;HPM_P2
2021/12/31 00:00:14;;;;;;;8.13;2.60;;;;;;;12.38;85.38;101711.16;5045265;28;20460;-86
2021/12/31 00:02:39;;;;;;;6.95;2.67;;;;;;;12.36;85.59;101710.31;5044416;28;20029;-87
2021/12/31 00:05:06;;;;;;;7.85;2.53;;;;;;;12.36;85.57;101710.31;5045764;28;20029;-87
2021/12/31 00:07:38;;;;;;;6.25;2.30;;;;;;;12.40;84.99;101709.38;5044695;28;20032;-87
2021/12/31 00:10:05;;;;;;;7.85;2.75;;;;;;;12.39;85.12;101712.88;5045917;28;20029;-86
2021/12/31 00:12:31;;;;;;;9.13;2.60;;;;;;;12.39;85.04;101708.50;5044552;28;20523;-88
2021/12/31 00:14:58;;;;;;;5.82;2.25;;;;;;;12.40;84.82;101707.63;5044343;28;20158;-88
2021/12/31 00:17:23;;;;;;;8.45;2.40;;;;;;;12.40;85.14;101709.38;5044473;28;20087;-87
2021/12/31 00:19:58;;;;;;;9.82;2.63;;;;;;;12.39;84.95;101707.66;5044417;28;20032;-87
2021/12/31 00:25:09;;;;;;;6.82;2.03;;;;;;;12.36;84.81;101718.16;5049239;28;20519;-87
2021/12/31 00:27:34;;;;;;;8.98;2.55;;;;;;;12.39;84.58;101723.31;5051427;28;20025;-89
2021/12/31 00:29:59;;;;;;;7.90;2.30;;;;;;;12.39;84.46;101712.88;5054120;28;20457;-88
2021/12/31 00:32:24;;;;;;;8.25;2.40;;;;;;;12.42;84.08;101723.25;5058012;28;20029;-88
2021/12/31 00:34:50;;;;;;;7.25;2.50;;;;;;;12.43;83.95;101719.75;5060875;28;20503;-87
2021/12/31 00:37:29;;;;;;;7.55;2.28;;;;;;;12.47;83.50;101716.19;5036595;28;20029;-88
2021/12/31 00:39:54;;;;;;;7.90;2.20;;;;;;;12.45;83.34;101712.75;5053384;28;20488;-88
2021/12/31 00:42:19;;;;;;;6.28;1.98;;;;;;;12.47;83.16;101726.63;5054111;28;20082;-88
2021/12/31 00:44:45;;;;;;;5.88;2.10;;;;;;;12.46;83.15;101719.72;5054288;28;20029;-87
2021/12/31 00:47:10;;;;;;;5.50;2.10;;;;;;;12.47;83.21;101721.41;5036286;28;20029;-87
2021/12/31 00:49:35;;;;;;;7.18;2.13;;;;;;;12.45;83.30;101712.75;5054337;28;20029;-87
2021/12/31 00:52:00;;;;;;;9.43;2.40;;;;;;;12.45;82.93;101717.97;5054568;28;20025;-88
2021/12/31 00:54:25;;;;;;;8.65;2.20;;;;;;;12.43;83.46;101709.31;5054453;28;20349;-87
2021/12/31 00:56:51;;;;;;;7.97;2.30;;;;;;;12.44;82.99;101717.09;5054259;28;20041;-88
2021/12/31 00:59:16;;;;;;;8.40;2.50;;;;;;;12.43;82.89;101718.00;5054042;28;20082;-88
2021/12/31 01:01:41;;;;;;;6.50;2.10;;;;;;;12.42;83.33;101724.09;5053988;28;20464;-88
2021/12/31 01:04:07;;;;;;;6.72;2.20;;;;;;;12.41;83.01;101713.72;5053774;28;20021;-87
2021/12/31 01:06:32;;;;;;;7.03;2.30;;;;;;;12.42;83.21;101718.03;5037742;28;20043;-87
2021/12/31 01:08:57;;;;;;;6.18;2.25;;;;;;;12.42;82.77;101713.66;5053040;28;20060;-88
2021/12/31 01:11:22;;;;;;;6.93;2.22;;;;;;;12.39;83.51;101708.50;5054696;28;20028;-87
2021/12/31 01:13:54;;;;;;;6.22;2.10;;;;;;;12.40;83.01;101714.59;5053629;28;20025;-87
2021/12/31 01:16:21;;;;;;;8.95;1.98;;;;;;;12.41;82.88;101713.72;5036353;28;20020;-87
2021/12/31 01:21:20;;;;;;;9.98;2.00;;;;;;;12.42;82.26;101720.66;5055793;28;20075;-88
2021/12/31 01:23:50;;;;;;;5.15;1.90;;;;;;;12.45;82.17;101717.97;5053829;28;20093;-88
2021/12/31 01:26:15;;;;;;;5.15;1.95;;;;;;;12.45;82.20;101712.75;5058180;28;20165;-87
2021/12/31 01:28:40;;;;;;;6.20;2.20;;;;;;;12.47;82.05;101715.34;5055423;28;20104;-87
2021/12/31 01:31:06;;;;;;;4.05;2.08;;;;;;;12.45;81.92;101697.94;5035726;28;20473;-87
2021/12/31 01:33:31;;;;;;;4.80;1.80;;;;;;;12.45;81.96;101713.63;5053293;28;20029;-88
2021/12/31 01:35:57;;;;;;;5.78;2.03;;;;;;;12.44;82.22;101708.44;5054880;28;20127;-87
2021/12/31 01:38:22;;;;;;;7.72;2.00;;;;;;;12.45;81.76;101707.53;5051794;28;20059;-86
2021/12/31 01:40:49;;;;;;;3.78;1.80;;;;;;;12.44;81.73;101698.00;5053002;28;20074;-88
2021/12/31 01:43:16;;;;;;;5.32;2.03;;;;;;;12.45;81.62;101697.09;5052704;28;20104;-87
2021/12/31 01:45:53;;;;;;;6.25;1.80;;;;;;;12.42;81.88;101708.44;5052431;28;20020;-87
2021/12/31 01:48:24;;;;;;;5.22;1.77;;;;;;;12.46;81.58;101724.94;5058629;28;20507;-89
2021/12/31 01:50:50;;;;;;;9.80;2.20;;;;;;;12.45;81.66;101728.44;5052702;28;20041;-87
2021/12/31 01:53:22;;;;;;;7.32;1.80;;;;;;;12.46;81.66;101719.72;5050863;28;20484;-87
2021/12/31 01:55:49;;;;;;;9.10;2.17;;;;;;;12.44;81.51;101727.53;5052960;28;20052;-87
2021/12/31 01:58:18;;;;;;;10.57;2.00;;;;;;;12.47;81.12;101729.22;5052207;28;20075;-88
2021/12/31 02:00:43;;;;;;;5.32;1.60;;;;;;;12.48;80.89;101733.56;5053752;28;20483;-87
2021/12/31 02:03:10;;;;;;;5.22;2.20;;;;;;;12.45;81.46;101744.09;5053536;28;20017;-87
2021/12/31 02:05:35;;;;;;;5.35;1.67;;;;;;;12.45;81.26;101738.88;5053521;28;20605;-88
2021/12/31 02:08:01;;;;;;;5.55;2.20;;;;;;;12.45;81.25;101733.66;5052686;28;20108;-87
2021/12/31 02:10:27;;;;;;;5.90;1.77;;;;;;;12.44;81.29;101739.75;5052604;28;20104;-87
2021/12/31 02:12:53;;;;;;;5.72;1.80;;;;;;;12.43;81.33;101736.25;5052391;28;20051;-87
2021/12/31 02:15:19;;;;;;;5.72;2.17;;;;;;;12.43;81.26;101740.63;5052273;28;20090;-87
2021/12/31 02:17:47;;;;;;;5.63;2.03;;;;;;;12.42;81.22;101739.75;5056516;28;20025;-87
2021/12/31 02:20:14;;;;;;;5.32;1.92;;;;;;;12.43;81.04;101735.41;5053069;28;20510;-88
2021/12/31 02:22:49;;;;;;;6.10;2.20;;;;;;;12.45;80.94;101733.66;5052211;28;20090;-87
2021/12/31 02:25:14;;;;;;;6.93;1.98;;;;;;;12.44;81.24;101734.53;5052063;28;20052;-87
2021/12/31 02:27:40;;;;;;;6.28;1.90;;;;;;;12.44;81.34;101731.91;5053459;28;20050;-88
2021/12/31 02:30:08;;;;;;;8.45;2.40;;;;;;;12.43;80.91;101731.03;5052869;28;20025;-87
2021/12/31 02:32:34;;;;;;;8.15;1.88;;;;;;;12.45;80.68;101728.44;5052008;28;20032;-88
2021/12/31 02:34:59;;;;;;;5.38;2.00;;;;;;;12.42;81.08;101726.72;5054623;28;20056;-88
2021/12/31 02:37:25;;;;;;;5.15;2.10;;;;;;;12.42;80.58;101731.09;5057037;28;20108;-88
2021/12/31 02:39:50;;;;;;;6.18;2.00;;;;;;;12.40;81.29;101725.03;5051985;28;20095;-87
2021/12/31 02:42:15;;;;;;;9.43;2.10;;;;;;;12.39;81.08;101723.31;5052447;28;20017;-87
2021/12/31 02:44:42;;;;;;;6.25;1.98;;;;;;;12.39;80.99;101723.31;5052281;28;20104;-88
2021/12/31 02:47:08;;;;;;;5.93;1.90;;;;;;;12.38;81.04;101727.66;5052004;28;20021;-87
2021/12/31 02:49:38;;;;;;;6.53;1.60;;;;;;;12.40;81.10;101727.66;5051221;28;20376;-87
2021/12/31 02:52:06;;;;;;;6.55;2.00;;;;;;;12.38;81.01;101725.03;5051563;28;20724;-87
2021/12/31 02:54:35;;;;;;;6.50;2.17;;;;;;;12.37;80.74;101720.75;5052852;28;20017;-87
2021/12/31 02:57:00;;;;;;;4.95;2.15;;;;;;;12.36;81.13;101713.81;5033244;28;20044;-87
2021/12/31 02:59:25;;;;;;;5.47;1.77;;;;;;;12.35;81.13;101713.81;5051603;28;20036;-87
2021/12/31 03:01:52;;;;;;;6.03;1.92;;;;;;;12.36;81.05;101707.72;5052433;28;20618;-87
2021/12/31 03:04:21;;;;;;;3.95;2.00;;;;;;;12.34;81.24;101706.88;5051872;28;20384;-87
2021/12/31 03:06:49;;;;;;;8.73;2.20;;;;;;;12.33;81.10;101707.75;5052236;28;20013;-87
2021/12/31 03:09:15;;;;;;;6.95;2.00;;;;;;;12.33;81.18;101711.25;5050309;28;20021;-87
2021/12/31 03:11:42;;;;;;;6.80;1.88;;;;;;;12.31;81.32;101713.03;5051532;28;20029;-87
2021/12/31 03:14:08;;;;;;;7.22;2.13;;;;;;;12.30;80.87;101708.69;5052590;28;20029;-87
2021/12/31 03:16:34;;;;;;;7.47;2.03;;;;;;;12.32;81.04;101716.47;5051769;28;20033;-87
2021/12/31 03:18:59;;;;;;;4.97;2.15;;;;;;;12.29;81.45;101704.34;5051774;28;20032;-88
2021/12/31 03:21:24;;;;;;;7.85;2.30;;;;;;;12.28;81.08;101711.34;5051302;28;20036;-87
2021/12/31 03:23:54;;;;;;;5.07;2.00;;;;;;;12.28;81.31;101706.13;5051887;28;20123;-87
2021/12/31 03:26:21;;;;;;;5.88;2.03;;;;;;;12.27;80.92;101707.00;5050712;28;20063;-87
2021/12/31 03:28:47;;;;;;;5.85;1.85;;;;;;;12.26;81.01;101707.91;5051526;28;20032;-87
2021/12/31 03:31:12;;;;;;;6.40;2.00;;;;;;;12.24;81.44;101701.84;5052652;28;20025;-87
2021/12/31 03:33:37;;;;;;;9.98;2.30;;;;;;;12.23;81.15;101697.50;5051775;28;20029;-88
2021/12/31 03:36:03;;;;;;;8.02;1.98;;;;;;;12.24;81.00;101698.34;5051319;28;20029;-88
2021/12/31 03:38:28;;;;;;;6.70;2.17;;;;;;;12.23;80.97;101692.28;5051231;28;20024;-88
2021/12/31 03:40:54;;;;;;;7.22;2.20;;;;;;;12.22;80.91;101695.78;5052145;28;20063;-87
2021/12/31 03:43:19;;;;;;;7.80;2.30;;;;;;;12.20;81.11;101697.56;5033683;28;20013;-86
2021/12/31 03:45:46;;;;;;;5.18;2.05;;;;;;;12.19;81.11;101695.84;5051567;28;20036;-87
2021/12/31 03:48:11;;;;;;;6.55;2.00;;;;;;;12.17;81.29;101695.00;5041390;28;20021;-88
2021/12/31 03:50:37;;;;;;;7.68;2.20;;;;;;;12.15;81.29;101694.19;5051537;28;20013;-87
2021/12/31 03:53:02;;;;;;;5.35;1.83;;;;;;;12.16;81.37;101690.69;5051340;28;20529;-87
2021/12/31 03:55:28;;;;;;;9.80;2.72;;;;;;;12.15;81.37;101696.78;5052178;28;20025;-86
2021/12/31 03:57:53;;;;;;;5.90;1.90;;;;;;;12.13;81.28;101696.81;5050063;28;20029;-87
2021/12/31 04:00:20;;;;;;;5.82;2.30;;;;;;;12.13;81.35;101682.91;5055666;28;20035;-87
2021/12/31 04:02:45;;;;;;;7.32;2.40;;;;;;;12.10;81.52;101690.81;5054520;28;20094;-88
2021/12/31 04:05:10;;;;;;;7.50;2.50;;;;;;;12.10;81.35;101688.22;5055040;28;20024;-87
2021/12/31 04:07:36;;;;;;;11.85;2.53;;;;;;;12.08;81.30;101684.75;5055320;28;20021;-88
2021/12/31 04:10:01;;;;;;;7.07;2.63;;;;;;;12.07;81.59;101686.50;5056172;28;20028;-87
2021/12/31 04:12:26;;;;;;;5.60;2.10;;;;;;;12.09;81.74;101691.69;5056469;28;20045;-88
2021/12/31 04:14:51;;;;;;;6.63;2.25;;;;;;;12.06;81.87;101689.16;5060921;28;20029;-87
2021/12/31 04:17:17;;;;;;;6.22;2.50;;;;;;;12.06;81.59;101691.75;5054658;28;20050;-87
2021/12/31 04:19:43;;;;;;;7.38;2.47;;;;;;;12.05;81.54;101682.22;5055522;28;20028;-88
2021/12/31 04:22:11;;;;;;;8.75;2.88;;;;;;;12.04;81.62;101690.91;5055465;28;20021;-87
2021/12/31 04:27:08;;;;;;;5.72;2.50;;;;;;;12.03;81.81;101694.41;5054951;28;20025;-87
2021/12/31 04:29:34;;;;;;;6.45;2.70;;;;;;;12.00;81.91;101690.13;5054669;28;20039;-87
2021/12/31 04:32:00;;;;;;;6.32;3.00;;;;;;;12.01;81.87;101688.34;5054630;28;20102;-87
2021/12/31 04:34:26;;;;;;;5.55;2.40;;;;;;;11.99;81.96;101684.03;5054971;28;20495;-87
2021/12/31 04:36:52;;;;;;;7.55;2.60;;;;;;;12.01;81.61;101678.81;5054926;28;20029;-86
2021/12/31 04:39:17;;;;;;;7.55;2.60;;;;;;;12.02;81.77;101680.53;5054038;28;20021;-87
2021/12/31 04:41:42;;;;;;;7.43;2.50;;;;;;;12.02;81.81;101677.91;5055873;28;20741;-87
2021/12/31 04:44:07;;;;;;;7.53;2.65;;;;;;;12.01;81.63;101664.88;5036210;28;20021;-88
2021/12/31 04:46:33;;;;;;;7.50;2.80;;;;;;;12.03;81.95;101665.72;5053576;28;20460;-87
2021/12/31 04:48:58;;;;;;;7.55;2.65;;;;;;;12.04;81.51;101668.28;5054746;28;20044;-88
2021/12/31 04:51:23;;;;;;;6.68;2.55;;;;;;;12.02;81.53;101662.28;5053782;28;20116;-88
2021/12/31 04:53:48;;;;;;;9.18;2.70;;;;;;;12.04;81.33;101662.22;5052545;28;20036;-87
2021/12/31 04:56:14;;;;;;;7.90;2.70;;;;;;;12.03;81.73;101663.13;5053478;28;20024;-88
2021/12/31 04:58:39;;;;;;;7.25;3.00;;;;;;;12.04;81.15;101665.69;5054678;28;20020;-88
2021/12/31 05:01:04;;;;;;;6.63;3.00;;;;;;;12.03;81.65;101668.31;5055659;28;20333;-87
2021/12/31 05:03:29;;;;;;;8.80;2.90;;;;;;;12.01;81.68;101670.97;5052983;28;20025;-87
2021/12/31 05:05:55;;;;;;;7.50;2.40;;;;;;;12.03;81.28;101684.84;5054054;28;20028;-87
2021/12/31 05:08:20;;;;;;;7.38;2.72;;;;;;;12.03;81.31;101678.75;5056759;28;20033;-87
2021/12/31 05:10:45;;;;;;;6.97;2.55;;;;;;;12.03;81.21;101673.53;5054545;28;20032;-87
2021/12/31 05:13:15;;;;;;;7.53;2.70;;;;;;;12.04;81.26;101670.06;5052366;28;20033;-87
2021/12/31 05:15:45;;;;;;;8.00;2.60;;;;;;;12.04;81.17;101677.88;5053681;28;20039;-87
2021/12/31 05:18:10;;;;;;;8.52;2.78;;;;;;;12.04;80.86;101680.47;5054633;28;20025;-87
2021/12/31 05:20:35;;;;;;;6.75;2.47;;;;;;;12.03;81.16;101668.31;5054953;28;20025;-88
2021/12/31 05:23:01;;;;;;;7.28;2.60;;;;;;;12.04;80.89;101675.28;5053653;28;20039;-88
2021/12/31 05:25:27;;;;;;;6.63;2.40;;;;;;;12.04;80.84;101662.22;5053402;28;20074;-88
2021/12/31 05:27:52;;;;;;;5.38;2.33;;;;;;;12.04;80.37;101670.06;5052776;28;20036;-88
2021/12/31 05:30:18;;;;;;;7.22;2.30;;;;;;;12.05;80.53;101669.16;5053448;28;20035;-88
2021/12/31 05:32:44;;;;;;;6.50;2.45;;;;;;;12.05;80.58;101659.56;5052980;28;20159;-88
2021/12/31 05:35:10;;;;;;;8.88;2.50;;;;;;;12.07;80.18;101662.16;5052981;28;20021;-88
2021/12/31 05:37:35;;;;;;;5.72;1.92;;;;;;;12.07;79.88;101651.75;5053507;28;20021;-88
2021/12/31 05:40:00;;;;;;;7.22;2.10;;;;;;;12.07;80.00;101644.75;5052488;28;20382;-87
2021/12/31 05:42:26;;;;;;;5.78;2.17;;;;;;;12.05;79.99;101635.25;5053540;28;20025;-88
2021/12/31 05:44:51;;;;;;;9.82;2.30;;;;;;;12.09;79.54;101634.31;5054050;28;20040;-89
2021/12/31 05:47:16;;;;;;;5.07;2.00;;;;;;;12.09;79.09;101639.53;5037805;28;20032;-88
2021/12/31 05:49:41;;;;;;;5.70;2.00;;;;;;;12.09;79.24;101622.13;5053346;28;20032;-87
2021/12/31 05:52:07;;;;;;;10.32;2.28;;;;;;;12.05;79.21;101623.06;5053260;28;20036;-88
2021/12/31 05:54:32;;;;;;;7.28;2.63;;;;;;;12.03;79.29;101616.16;5052509;28;20115;-88
2021/12/31 05:56:58;;;;;;;5.50;2.10;;;;;;;11.98;79.29;101614.50;5053221;28;20021;-88
2021/12/31 05:59:23;;;;;;;6.75;2.10;;;;;;;11.97;78.91;101611.91;5051603;28;20078;-87
2021/12/31 06:01:48;;;;;;;6.20;2.40;;;;;;;11.93;78.99;101618.94;5055874;28;20044;-88
2021/12/31 06:04:14;;;;;;;6.68;2.42;;;;;;;11.90;79.10;101625.94;5051710;28;20043;-89
2021/12/31 06:06:40;;;;;;;5.50;2.20;;;;;;;11.85;79.44;101618.19;5051787;28;20260;-89
2021/12/31 06:09:07;;;;;;;8.15;2.53;;;;;;;11.84;79.27;101626.91;5052217;28;20040;-88
2021/12/31 06:11:32;;;;;;;7.20;2.30;;;;;;;11.78;79.44;101622.69;5052211;28;20108;-88
2021/12/31 06:14:02;;;;;;;7.93;2.25;;;;;;;11.73;79.56;101632.31;5052537;28;20104;-88
2021/12/31 06:16:41;;;;;;;6.18;2.25;;;;;;;11.73;79.60;101623.66;5052037;28;20468;-89
2021/12/31 06:19:11;;;;;;;6.20;2.40;;;;;;;11.66;79.63;101626.34;5051548;28;20070;-88
2021/12/31 06:21:42;;;;;;;7.03;2.45;;;;;;;11.62;79.80;101636.88;5051927;28;20032;-88
2021/12/31 06:24:08;;;;;;;7.53;2.47;;;;;;;11.63;79.80;101647.25;5052101;28;20043;-89
2021/12/31 06:26:34;;;;;;;7.45;2.30;;;;;;;11.57;79.93;101634.34;5052896;28;20029;-88
2021/12/31 06:29:00;;;;;;;5.53;2.40;;;;;;;11.54;80.01;101639.59;5059101;28;20017;-86
2021/12/31 06:31:25;;;;;;;13.85;2.80;;;;;;;11.51;79.91;101640.53;5053685;28;20116;-88
2021/12/31 06:33:51;;;;;;;8.48;2.33;;;;;;;11.50;80.01;101650.97;5054089;28;20048;-87
2021/12/31 06:36:18;;;;;;;8.38;2.42;;;;;;;11.44;80.35;101658.91;5052243;28;20024;-87
2021/12/31 06:38:44;;;;;;;5.22;2.10;;;;;;;11.42;80.32;101645.03;5052473;28;20021;-87
2021/12/31 06:41:09;;;;;;;7.43;2.20;;;;;;;11.38;80.59;101644.19;5051830;28;20021;-87
2021/12/31 06:43:35;;;;;;;6.97;2.20;;;;;;;11.34;80.72;101652.97;5057502;28;20533;-87
2021/12/31 06:46:00;;;;;;;5.75;2.08;;;;;;;11.31;81.05;101659.06;5036055;28;20119;-87
2021/12/31 06:48:25;;;;;;;7.78;2.45;;;;;;;11.28;81.08;101664.31;5052069;28;20024;-88
2021/12/31 06:50:50;;;;;;;11.52;2.50;;;;;;;11.26;81.08;101663.50;5052306;28;20029;-88
2021/12/31 06:53:16;;;;;;;7.57;2.63;;;;;;;11.23;81.05;101664.41;5052634;28;20148;-87
2021/12/31 06:55:41;;;;;;;7.18;2.40;;;;;;;11.22;81.09;101674.84;5052405;28;20131;-87
2021/12/31 06:58:06;;;;;;;7.40;2.50;;;;;;;11.18;81.28;101665.34;5051254;28;20032;-87
2021/12/31 07:00:31;;;;;;;8.35;2.60;;;;;;;11.14;81.44;101667.16;5052744;28;20472;-87
2021/12/31 07:03:13;;;;;;;5.72;2.47;;;;;;;11.14;81.50;101677.56;5052849;28;20017;-87
2021/12/31 07:05:43;;;;;;;7.07;2.38;;;;;;;11.12;81.28;101673.25;5056516;28;20100;-88
2021/12/31 07:08:09;;;;;;;6.38;2.25;;;;;;;11.06;81.15;101677.69;5051623;28;20028;-88
2021/12/31 07:10:34;;;;;;;6.13;2.38;;;;;;;11.04;81.59;101674.25;5053663;28;20021;-87
2021/12/31 07:13:04;;;;;;;7.10;2.60;;;;;;;11.04;81.38;101675.97;5057578;28;20116;-88
2021/12/31 07:15:30;;;;;;;8.40;2.80;;;;;;;11.04;81.22;101676.84;5055700;28;20055;-86
2021/12/31 07:17:55;;;;;;;7.07;2.55;;;;;;;11.01;81.62;101676.03;5051557;28;20040;-87
2021/12/31 07:20:21;;;;;;;9.40;3.28;;;;;;;11.01;81.41;101669.06;5052125;28;20442;-88
2021/12/31 07:22:46;;;;;;;7.40;3.67;;;;;;;11.00;81.31;101661.28;5051547;28;20025;-88
2021/12/31 07:25:12;;;;;;;10.50;3.20;;;;;;;10.96;81.75;101665.66;5052327;28;20455;-88
2021/12/31 07:27:37;;;;;;;10.48;3.13;;;;;;;10.94;81.59;101662.22;5050046;28;20039;-87
2021/12/31 07:30:04;;;;;;;7.63;3.30;;;;;;;10.92;81.99;101661.41;5051629;28;20037;-87
2021/12/31 07:32:29;;;;;;;6.47;2.80;;;;;;;10.92;81.53;101661.41;5049835;28;20391;-86
2021/12/31 07:34:54;;;;;;;7.15;2.90;;;;;;;10.90;81.75;101664.00;5051548;28;20116;-87
2021/12/31 07:37:20;;;;;;;6.22;2.88;;;;;;;10.88;81.78;101672.72;5050197;28;20455;-87
2021/12/31 07:39:47;;;;;;;7.60;2.63;;;;;;;10.83;82.04;101664.13;5051496;28;20033;-88
2021/12/31 07:42:13;;;;;;;6.93;2.55;;;;;;;10.84;81.72;101671.94;5056605;28;20029;-87
2021/12/31 07:44:39;;;;;;;5.75;3.00;;;;;;;10.85;81.88;101680.56;5053073;28;20024;-88
2021/12/31 07:47:04;;;;;;;6.28;2.70;;;;;;;10.84;81.55;101674.53;5051478;28;20582;-88
2021/12/31 07:49:30;;;;;;;7.50;2.63;;;;;;;10.83;81.69;101675.41;5052311;28;20020;-87
2021/12/31 07:51:55;;;;;;;7.32;2.97;;;;;;;10.80;81.70;101672.84;5056559;28;20399;-88
2021/12/31 07:54:20;;;;;;;7.43;3.60;;;;;;;10.78;81.67;101677.19;5061547;28;20112;-88
2021/12/31 07:56:45;;;;;;;9.45;4.07;;;;;;;10.79;81.57;101678.94;5054990;28;20060;-87
2021/12/31 07:59:11;;;;;;;11.70;3.17;;;;;;;10.77;81.83;101684.13;5051360;28;20089;-88
2021/12/31 08:01:36;;;;;;;8.63;2.80;;;;;;;10.81;81.43;101686.69;5053059;28;20036;-87
2021/12/31 08:04:02;;;;;;;6.72;2.60;;;;;;;10.77;81.57;101689.34;5056550;28;20024;-87
2021/12/31 08:06:28;;;;;;;6.38;2.55;;;;;;;10.75;81.52;101679.84;5051121;28;20025;-87
2021/12/31 08:08:53;;;;;;;8.32;2.88;;;;;;;10.74;81.55;101684.19;5051403;28;20040;-88
2021/12/31 08:11:18;;;;;;;7.50;2.58;;;;;;;10.73;81.52;101687.69;5051544;28;20088;-88
2021/12/31 08:13:43;;;;;;;5.63;2.60;;;;;;;10.71;81.74;101689.44;5051330;28;20040;-87
2021/12/31 08:16:09;;;;;;;6.13;2.60;;;;;;;10.73;81.55;101692.00;5053057;28;21633;-88
2021/12/31 08:18:34;;;;;;;5.28;2.50;;;;;;;10.73;81.54;101692.88;5050626;28;20040;-88
2021/12/31 08:20:59;;;;;;;6.13;2.65;;;;;;;10.73;81.34;101692.00;5051198;28;20094;-88
2021/12/31 08:23:24;;;;;;;7.55;2.80;;;;;;;10.72;81.74;101691.16;5051520;28;20025;-88
2021/12/31 08:25:51;;;;;;;6.22;2.50;;;;;;;10.73;81.39;101697.22;5050872;28;20079;-88
2021/12/31 08:28:16;;;;;;;6.18;2.47;;;;;;;10.74;81.34;101688.53;5051284;28;20029;-87
2021/12/31 08:30:41;;;;;;;6.35;2.50;;;;;;;10.72;81.54;101679.88;5051974;28;20028;-88
2021/12/31 08:33:07;;;;;;;4.50;2.40;;;;;;;10.76;81.32;101672.00;5053026;28;20048;-87
2021/12/31 08:35:32;;;;;;;6.78;2.72;;;;;;;10.77;80.58;101668.50;5050799;28;20033;-88
2021/12/31 08:37:58;;;;;;;7.35;2.35;;;;;;;10.82;80.56;101673.69;5051341;28;20108;-88
2021/12/31 08:40:23;;;;;;;6.68;2.05;;;;;;;10.83;80.49;101679.72;5050534;28;20055;-89
2021/12/31 08:42:49;;;;;;;6.30;2.53;;;;;;;10.84;80.41;101692.75;5050247;28;20053;-87
2021/12/31 08:45:14;;;;;;;5.97;2.22;;;;;;;10.87;80.50;101679.66;5053793;28;20143;-88
2021/12/31 08:47:39;;;;;;;9.63;2.53;;;;;;;10.90;80.30;101673.56;5052740;28;20043;-88
2021/12/31 08:50:05;;;;;;;8.57;2.38;;;;;;;10.95;79.46;101686.53;5055260;28;20024;-88
2021/12/31 08:52:30;;;;;;;6.43;2.55;;;;;;;10.97;80.00;101684.75;5054400;28;20173;-87
2021/12/31 08:54:55;;;;;;;6.50;2.17;;;;;;;11.01;79.37;101676.88;5054808;28;20025;-88
2021/12/31 08:57:21;;;;;;;6.10;2.08;;;;;;;11.06;79.21;101680.28;5054191;28;20464;-88
2021/12/31 08:59:46;;;;;;;14.88;2.42;;;;;;;11.08;79.08;101668.13;5057252;28;20024;-89
2021/12/31 09:02:13;;;;;;;6.75;2.30;;;;;;;11.10;79.02;101672.44;5053469;28;20021;-88
2021/12/31 09:04:39;;;;;;;5.38;2.33;;;;;;;11.12;79.10;101665.44;5054105;28;20055;-89
2021/12/31 09:07:04;;;;;;;6.28;2.30;;;;;;;11.14;78.62;101656.75;5057133;28;20064;-88
2021/12/31 09:09:29;;;;;;;6.13;2.15;;;;;;;11.15;78.83;101668.00;5053951;28;20036;-88
2021/12/31 09:11:56;;;;;;;7.60;2.20;;;;;;;11.18;78.58;101663.63;5053432;28;20515;-88
2021/12/31 09:14:21;;;;;;;5.05;2.10;;;;;;;11.19;78.58;101659.25;5035773;28;20119;-87
2021/12/31 09:16:47;;;;;;;4.60;2.13;;;;;;;11.20;78.60;101663.59;5053848;28;20060;-88
2021/12/31 09:19:13;;;;;;;4.68;2.00;;;;;;;11.21;78.45;101663.56;5053902;28;20036;-87
2021/12/31 09:21:39;;;;;;;5.65;2.22;;;;;;;11.23;78.14;101681.78;5053209;28;20480;-89
2021/12/31 09:24:06;;;;;;;5.85;2.17;;;;;;;11.24;78.28;101683.50;5052844;28;20462;-88
2021/12/31 09:26:31;;;;;;;5.55;2.10;;;;;;;11.26;78.11;101665.25;5052774;28;20029;-87
2021/12/31 09:28:56;;;;;;;5.13;2.28;;;;;;;11.27;77.91;101678.25;5053365;28;20036;-88
2021/12/31 09:31:21;;;;;;;4.88;2.15;;;;;;;11.27;78.33;101670.44;5053162;28;20495;-87
2021/12/31 09:33:47;;;;;;;4.35;2.30;;;;;;;11.29;78.43;101681.69;5053141;28;20082;-90
2021/12/31 09:36:13;;;;;;;6.82;2.63;;;;;;;11.31;78.17;101682.50;5053741;28;20029;-88
2021/12/31 09:38:38;;;;;;;5.88;2.40;;;;;;;11.35;77.55;101678.97;5056869;28;20056;-89
2021/12/31 09:41:03;;;;;;;8.00;2.65;;;;;;;11.32;78.09;101675.56;5054908;28;20149;-88
2021/12/31 09:43:29;;;;;;;8.60;2.50;;;;;;;11.34;77.75;101681.63;5053418;28;20525;-89
2021/12/31 09:45:54;;;;;;;5.53;2.20;;;;;;;11.36;77.15;101693.72;5053774;28;20044;-87
2021/12/31 09:48:24;;;;;;;7.18;2.40;;;;;;;11.36;77.55;101698.94;5055902;28;20561;-89
2021/12/31 09:50:51;;;;;;;8.13;2.25;;;;;;;11.36;77.77;101693.72;5035257;28;20477;-88
2021/12/31 09:53:18;;;;;;;9.77;2.15;;;;;;;11.37;77.31;101700.66;5057590;28;20029;-89
2021/12/31 09:55:47;;;;;;;7.72;2.40;;;;;;;11.40;77.42;101710.16;5062047;28;20017;-89
2021/12/31 09:58:15;;;;;;;8.15;2.30;;;;;;;11.45;76.68;101712.69;5053393;28;20044;-88
2021/12/31 10:00:46;;;;;;;4.85;2.40;;;;;;;11.46;77.27;101715.31;5054883;28;20043;-88
2021/12/31 10:03:21;;;;;;;9.02;2.85;;;;;;;11.51;76.84;101717.81;5061380;28;20063;-88
2021/12/31 10:05:48;;;;;;;6.32;2.50;;;;;;;11.52;76.88;101729.97;5028544;28;20028;-88
2021/12/31 10:08:21;;;;;;;5.53;2.50;;;;;;;11.53;76.83;101721.28;5046993;28;20059;-87
2021/12/31 10:11:08;;;;;;;5.40;2.70;;;;;;;11.55;77.44;101709.09;5046524;28;20387;-88
2021/12/31 10:13:36;;;;;;;6.15;2.30;;;;;;;11.51;76.93;101702.19;5047901;28;20032;-87
2021/12/31 10:16:01;;;;;;;5.45;2.40;;;;;;;11.50;76.96;101690.03;5047692;28;20028;-87
2021/12/31 10:18:36;;;;;;;6.60;2.50;;;;;;;11.51;76.87;101728.25;5048732;28;20045;-87
2021/12/31 10:21:04;;;;;;;11.70;3.50;;;;;;;11.48;77.41;101715.25;5045102;28;20021;-86
2021/12/31 10:23:29;;;;;;;4.45;2.40;;;;;;;11.47;77.25;101705.72;5045541;28;20487;-86
2021/12/31 10:26:08;;;;;;;6.25;2.30;;;;;;;11.48;77.27;101689.22;5045703;28;20033;-87
2021/12/31 10:28:35;;;;;;;5.65;2.08;;;;;;;11.46;76.78;101685.75;5044150;28;20021;-88
2021/12/31 10:31:13;;;;;;;6.03;2.22;;;;;;;11.46;77.15;101675.34;5045698;28;20029;-87
2021/12/31 10:33:47;;;;;;;6.80;3.05;;;;;;;11.48;76.91;101692.69;5045157;28;20032;-87
2021/12/31 10:36:36;;;;;;;4.32;2.38;;;;;;;11.53;77.40;101687.41;5043388;28;20033;-88
2021/12/31 10:39:26;;;;;;;7.95;3.90;;;;;;;11.57;77.10;101688.19;5043831;28;20025;-86
2021/12/31 10:42:00;;;;;;;4.88;2.60;;;;;;;11.59;77.02;101692.53;5044984;28;20764;-87
2021/12/31 10:44:45;;;;;;;8.10;2.92;;;;;;;11.62;77.03;101704.63;5044642;28;20037;-87
2021/12/31 10:47:13;;;;;;;8.35;4.10;;;;;;;11.62;76.67;101695.06;5046100;28;20036;-87
2021/12/31 10:50:00;;;;;;;7.40;3.08;;;;;;;11.65;77.12;101684.59;5045488;28;20049;-85
2021/12/31 10:52:33;;;;;;;13.80;3.25;;;;;;;11.63;76.76;101688.94;5045205;28;20490;-86
2021/12/31 10:55:02;;;;;;;6.30;2.70;;;;;;;11.65;76.73;101697.63;5027557;28;20396;-86
2021/12/31 10:57:36;;;;;;;4.38;2.15;;;;;;;11.64;76.72;101702.88;5026122;28;20047;-87
2021/12/31 11:00:03;;;;;;;4.97;1.98;;;;;;;11.66;76.73;101696.72;5041304;28;20387;-87
2021/12/31 11:02:28;;;;;;;7.07;3.05;;;;;;;11.67;76.86;101708.88;5045058;28;20108;-87
2021/12/31 11:04:54;;;;;;;7.15;2.63;;;;;;;11.69;76.86;101704.50;5045892;28;20033;-87
2021/12/31 11:07:20;;;;;;;11.77;2.85;;;;;;;11.74;76.99;101708.78;5047183;28;20028;-87
2021/12/31 11:09:45;;;;;;;7.43;2.63;;;;;;;11.78;76.58;101694.81;5045584;28;20031;-88
2021/12/31 11:12:14;;;;;;;12.35;2.70;;;;;;;11.82;76.62;101691.25;5041022;28;20036;-87
2021/12/31 11:14:40;;;;;;;21.20;3.10;;;;;;;11.84;76.30;101679.06;5041078;28;20029;-86
2021/12/31 11:17:06;;;;;;;4.93;2.47;;;;;;;11.86;76.29;101677.28;5041927;28;20048;-86
2021/12/31 11:19:32;;;;;;;10.32;2.42;;;;;;;11.86;76.64;101677.28;5040340;28;20499;-87
2021/12/31 11:21:57;;;;;;;9.27;2.80;;;;;;;11.89;76.05;101669.41;5024371;28;20079;-87
2021/12/31 11:24:33;;;;;;;12.90;2.60;;;;;;;11.91;76.17;101669.38;5041975;28;20076;-87
2021/12/31 11:27:19;;;;;;;5.05;2.50;;;;;;;11.97;76.11;101679.72;5041563;28;20054;-87
2021/12/31 11:29:44;;;;;;;3.80;2.42;;;;;;;12.03;75.92;101663.13;5040698;28;20758;-87